Aviation Digital Data Service (ADDS)

Output produced by METARs form (0022 UTC 31 August 2016)
found at http://aviationweather.gov/adds/metars/
 
KRWI 302338Z 3100/3124 06005KT P6SM BKN250 
     FM310800 VRB03KT 1 1/2SM BR SCT001 
     FM311200 03005KT P6SM BKN250